createdAt,value
2022-08-27T00:04:52.992Z,6.93
2022-08-27T00:09:58.846Z,7.17
2022-08-27T00:15:04.081Z,6.93
2022-08-27T00:20:10.416Z,7.15
2022-08-27T00:25:17.144Z,6.32
2022-08-27T00:30:25.059Z,6.77
2022-08-27T00:35:29.372Z,5.95
2022-08-27T00:40:36.156Z,5.60
2022-08-27T00:45:46.423Z,6.63
2022-08-27T00:50:55.380Z,7.57
2022-08-27T00:56:09.746Z,8.13
2022-08-27T01:01:19.761Z,7.57
2022-08-27T01:06:29.675Z,8.55
2022-08-27T01:11:35.759Z,8.18
2022-08-27T01:16:46.785Z,9.00
2022-08-27T01:22:03.233Z,9.73
2022-08-27T01:27:14.009Z,10.48
2022-08-27T01:32:25.456Z,10.82
2022-08-27T01:37:29.996Z,10.83
2022-08-27T01:42:38.911Z,9.88
2022-08-27T01:47:44.566Z,10.45
2022-08-27T01:52:49.372Z,9.90
2022-08-27T01:57:57.054Z,9.05
2022-08-27T02:03:02.371Z,7.43
2022-08-27T02:08:06.725Z,6.90
2022-08-27T02:13:13.392Z,6.90
2022-08-27T02:18:18.278Z,7.85
2022-08-27T02:23:23.116Z,7.43
2022-08-27T02:28:29.314Z,7.70
2022-08-27T02:33:34.078Z,7.13
2022-08-27T02:38:38.689Z,7.18
2022-08-27T02:43:46.824Z,7.20
2022-08-27T02:48:54.232Z,7.43
2022-08-27T02:54:02.055Z,8.43
2022-08-27T02:59:08.075Z,11.07
2022-08-27T03:04:12.804Z,9.50
2022-08-27T03:09:17.103Z,9.90
2022-08-27T03:14:22.945Z,8.37
2022-08-27T03:19:27.337Z,10.95
2022-08-27T03:24:32.230Z,10.23
2022-08-27T03:29:38.722Z,9.35
2022-08-27T03:34:43.264Z,8.52
2022-08-27T03:39:47.454Z,7.93
2022-08-27T03:44:53.235Z,8.15
2022-08-27T03:49:57.622Z,8.03
2022-08-27T03:55:02.055Z,8.07
2022-08-27T04:00:12.729Z,9.43
2022-08-27T04:05:17.145Z,9.73
2022-08-27T04:10:22.137Z,9.95
2022-08-27T04:15:27.939Z,9.68
2022-08-27T04:20:35.357Z,9.30
2022-08-27T04:25:41.252Z,8.25
2022-08-27T04:30:48.251Z,8.45
2022-08-27T04:35:59.906Z,8.50
2022-08-27T04:41:21.362Z,8.30
2022-08-27T04:46:29.940Z,9.50
2022-08-27T04:51:34.854Z,8.98
2022-08-27T04:56:40.344Z,8.90
2022-08-27T05:01:46.162Z,7.90
2022-08-27T05:06:50.699Z,8.60
2022-08-27T05:11:58.874Z,7.83
2022-08-27T05:17:04.721Z,8.47
2022-08-27T05:22:09.136Z,8.27
2022-08-27T05:27:13.780Z,7.35
2022-08-27T05:32:19.446Z,8.60
2022-08-27T05:37:23.794Z,8.07
2022-08-27T05:42:30.080Z,8.40
2022-08-27T05:47:37.503Z,9.30
2022-08-27T05:52:48.836Z,9.87
2022-08-27T05:57:53.298Z,8.67
2022-08-27T06:02:59.552Z,9.07
2022-08-27T06:08:04.435Z,9.35
2022-08-27T06:13:08.687Z,8.00
2022-08-27T06:18:14.869Z,7.82
2022-08-27T06:23:19.213Z,8.10
2022-08-27T06:28:32.791Z,7.75
2022-08-27T06:33:39.630Z,8.13
2022-08-27T06:38:44.145Z,7.80
2022-08-27T06:43:49.148Z,8.68
2022-08-27T06:49:01.245Z,7.90
2022-08-27T06:54:08.961Z,8.07
2022-08-27T06:59:16.780Z,7.85
2022-08-27T07:04:32.623Z,8.10
2022-08-27T07:09:37.349Z,8.23
2022-08-27T07:14:43.784Z,8.70
2022-08-27T07:19:49.844Z,9.43
2022-08-27T07:24:54.259Z,9.07
2022-08-27T07:29:59.984Z,9.15
2022-08-27T07:35:09.812Z,7.60
2022-08-27T07:40:17.174Z,7.00
2022-08-27T07:45:22.099Z,6.70
2022-08-27T07:50:28.048Z,8.38
2022-08-27T07:55:32.425Z,8.93
2022-08-27T08:00:37.112Z,8.18
2022-08-27T08:05:45.237Z,8.18
2022-08-27T08:10:49.957Z,8.88
2022-08-27T08:15:54.241Z,9.18
2022-08-27T08:21:03.494Z,9.13
2022-08-27T08:26:09.743Z,6.97
2022-08-27T08:31:14.286Z,9.73
2022-08-27T08:36:20.768Z,7.47
2022-08-27T08:41:41.387Z,7.35
2022-08-27T08:46:55.296Z,7.45
2022-08-27T08:52:26.929Z,6.47
2022-08-27T08:57:44.860Z,6.00
2022-08-27T09:02:55.790Z,7.13
2022-08-27T09:08:32.326Z,4.85
2022-08-27T09:13:44.704Z,4.40
2022-08-27T09:18:52.334Z,4.85
2022-08-27T09:24:09.490Z,4.00
2022-08-27T09:29:20.048Z,4.73
2022-08-27T09:34:27.266Z,4.03
2022-08-27T09:39:45.835Z,5.07
2022-08-27T09:44:53.553Z,4.83
2022-08-27T09:50:53.586Z,4.78
2022-08-27T09:56:23.208Z,5.35
2022-08-27T10:01:32.363Z,3.97
2022-08-27T10:06:38.481Z,3.80
2022-08-27T10:12:08.154Z,3.83
2022-08-27T10:18:37.065Z,3.58
2022-08-27T10:24:31.527Z,3.10
2022-08-27T10:30:38.729Z,3.35
2022-08-27T10:37:17.171Z,3.22
2022-08-27T10:43:12.234Z,2.65
2022-08-27T10:48:47.241Z,2.08
2022-08-27T11:01:45.563Z,2.03
2022-08-27T11:29:15.051Z,1.70
2022-08-27T11:35:51.431Z,1.40
2022-08-27T11:43:15.593Z,1.70
2022-08-27T12:12:14.385Z,1.77
2022-08-27T12:18:09.676Z,2.10
2022-08-27T12:23:40.948Z,1.90
2022-08-27T12:28:48.350Z,1.80
2022-08-27T12:33:55.674Z,2.00
2022-08-27T12:39:03.672Z,1.87
2022-08-27T12:44:13.155Z,1.80
2022-08-27T12:49:39.097Z,2.27
2022-08-27T12:55:00.298Z,2.73
2022-08-27T13:00:14.458Z,2.00
2022-08-27T13:05:28.588Z,2.30
2022-08-27T13:10:37.929Z,2.53
2022-08-27T13:23:40.660Z,2.80
2022-08-27T13:29:30.192Z,2.90
2022-08-27T13:34:54.576Z,3.88
2022-08-27T13:40:00.336Z,3.85
2022-08-27T13:45:07.815Z,4.50
2022-08-27T13:50:22.658Z,5.13
2022-08-27T13:55:33.642Z,5.50
2022-08-27T14:00:38.548Z,5.50
2022-08-27T14:06:11.986Z,4.82
2022-08-27T14:11:29.378Z,6.13
2022-08-27T14:16:36.877Z,8.07
2022-08-27T14:21:43.731Z,8.83
2022-08-27T14:26:53.576Z,9.13
2022-08-27T14:31:57.943Z,9.35
2022-08-27T14:37:03.872Z,10.57
2022-08-27T14:42:10.361Z,10.70
2022-08-27T14:47:17.247Z,10.20
2022-08-27T14:52:24.828Z,10.52
2022-08-27T14:57:30.647Z,12.32
2022-08-27T15:02:36.396Z,11.43
2022-08-27T15:07:40.981Z,11.63
2022-08-27T15:12:55.171Z,11.93
2022-08-27T15:18:03.600Z,12.90
2022-08-27T15:23:08.048Z,11.50
2022-08-27T15:28:14.423Z,13.25
2022-08-27T15:33:20.911Z,15.18
2022-08-27T15:38:25.278Z,16.13
2022-08-27T15:43:31.436Z,17.37
2022-08-27T15:48:36.280Z,17.02
2022-08-27T15:53:43.839Z,15.73
2022-08-27T15:58:49.748Z,15.95
2022-08-27T16:03:55.075Z,18.43
2022-08-27T16:08:59.540Z,21.88
2022-08-27T16:14:05.582Z,23.83
2022-08-27T16:19:13.640Z,21.03
2022-08-27T16:24:22.950Z,21.05
2022-08-27T16:29:28.543Z,19.50
2022-08-27T16:34:33.203Z,20.48
2022-08-27T16:39:40.656Z,19.40
2022-08-27T16:44:46.626Z,17.42
2022-08-27T16:50:08.156Z,17.40
2022-08-27T16:55:12.476Z,16.67
2022-08-27T17:00:19.208Z,15.70
2022-08-27T17:05:34.097Z,14.52
2022-08-27T17:10:46.328Z,15.05
2022-08-27T17:15:53.175Z,15.57
2022-08-27T17:21:00.644Z,17.13
2022-08-27T17:26:09.216Z,16.50
2022-08-27T17:31:27.944Z,16.03
2022-08-27T17:36:33.603Z,14.63
2022-08-27T17:41:42.899Z,17.77
2022-08-27T17:46:49.426Z,15.00
2022-08-27T17:52:00.882Z,16.73
2022-08-27T17:57:14.877Z,16.13
2022-08-27T18:02:25.580Z,16.37
2022-08-27T18:07:30.063Z,17.40
2022-08-27T18:12:35.053Z,17.37
2022-08-27T18:17:42.539Z,14.63
2022-08-27T18:22:49.107Z,18.13
2022-08-27T18:27:58.038Z,17.88
2022-08-27T18:33:03.887Z,15.60
2022-08-27T18:38:08.313Z,15.93
2022-08-27T18:43:14.384Z,18.45
2022-08-27T18:48:23.240Z,18.43
2022-08-27T18:53:30.951Z,19.17
2022-08-27T18:58:38.490Z,19.27
2022-08-27T19:03:48.679Z,20.65
2022-08-27T19:08:54.146Z,23.48
2022-08-27T19:13:59.141Z,22.55
2022-08-27T19:19:08.030Z,22.20
2022-08-27T19:24:12.681Z,22.70
2022-08-27T19:29:17.994Z,22.93
2022-08-27T19:34:25.621Z,20.55
2022-08-27T19:39:30.390Z,21.23
2022-08-27T19:44:36.053Z,21.10
2022-08-27T19:49:44.901Z,23.07
2022-08-27T19:55:10.203Z,23.17
2022-08-27T20:00:18.985Z,21.63
2022-08-27T20:05:25.038Z,20.67
2022-08-27T20:10:36.879Z,21.17
2022-08-27T20:15:42.095Z,20.10
2022-08-27T20:20:49.930Z,23.42
2022-08-27T20:25:57.837Z,22.55
2022-08-27T20:31:05.187Z,13.90
2022-08-27T20:36:12.996Z,10.30
2022-08-27T20:41:17.274Z,8.73
2022-08-27T20:46:25.730Z,8.00
2022-08-27T20:51:31.883Z,8.00
2022-08-27T20:56:56.412Z,8.15
2022-08-27T21:02:07.016Z,6.95
2022-08-27T21:07:12.910Z,7.83
2022-08-27T21:12:22.824Z,6.80
2022-08-27T21:17:29.588Z,7.10
2022-08-27T21:22:36.668Z,8.05
2022-08-27T21:27:42.512Z,8.52
2022-08-27T21:32:46.916Z,7.90
2022-08-27T21:37:52.726Z,7.93
2022-08-27T21:42:58.516Z,7.90
2022-08-27T21:48:03.328Z,8.07
2022-08-27T21:53:09.609Z,7.40
2022-08-27T21:58:15.678Z,8.80
2022-08-27T22:03:23.196Z,7.90
2022-08-27T22:08:28.946Z,8.23
2022-08-27T22:13:34.750Z,7.20
2022-08-27T22:18:39.176Z,8.23
2022-08-27T22:23:46.145Z,7.63
2022-08-27T22:28:50.714Z,9.27
2022-08-27T22:33:55.060Z,8.93
2022-08-27T22:39:03.485Z,8.75
2022-08-27T22:44:08.466Z,8.27
2022-08-27T22:49:12.927Z,8.57
2022-08-27T22:54:20.790Z,10.27
2022-08-27T22:59:25.479Z,9.43
2022-08-27T23:04:51.319Z,8.68
2022-08-27T23:09:56.902Z,8.97
2022-08-27T23:15:01.282Z,9.10
2022-08-27T23:20:08.374Z,8.90
2022-08-27T23:25:32.701Z,8.95
2022-08-27T23:30:37.878Z,10.27
2022-08-27T23:35:47.571Z,10.75
2022-08-27T23:40:53.480Z,9.60
2022-08-27T23:45:57.847Z,9.47
2022-08-27T23:51:02.876Z,8.32
2022-08-27T23:56:09.182Z,8.60
